YXBS weather

Beaudesert Hospital Helipad
Beaudesert, Queensland, Australia

Public forecast

Using degrees Celsius for public forecast. Weather courtesy of forecast.io.

METAR (pilot weather report)

Closest report is RAAF Base Amberley, 25.8 nm (47.8 km) NW. Retrieved 2019/04/21 12:30 UTC (0 seconds ago):

YAMB 211230Z AUTO 00000KT //// // ////// 18/17 Q1021

TAF (pilot weather forecast)

Closest forecast is RAAF Base Amberley, 25.8 nm (47.8 km) NW. Retrieved 2019/04/21 12:00 UTC (24 minutes ago):

TAF YAMB 211022Z 2112/2206 15007KT 9999 FEW020 SCT035 FM220000 12012KT 9999 SCT040